sensor_id;sensor_type;location;lat;lon;timestamp;P1;durP1;ratioP1;P2;durP2;ratioP2
3667;SDS011;24099;47.102;15.440;2023-02-02T00:00:14;0.20;;;0.20;;
3667;SDS011;24099;47.102;15.440;2023-02-02T00:02:43;0.22;;;0.22;;
3667;SDS011;24099;47.102;15.440;2023-02-02T00:05:11;0.30;;;0.30;;
3667;SDS011;24099;47.102;15.440;2023-02-02T00:07:39;0.20;;;0.20;;
3667;SDS011;24099;47.102;15.440;2023-02-02T00:10:07;2.35;;;0.65;;
3667;SDS011;24099;47.102;15.440;2023-02-02T00:12:35;0.20;;;0.20;;
3667;SDS011;24099;47.102;15.440;2023-02-02T00:15:04;0.20;;;0.20;;
3667;SDS011;24099;47.102;15.440;2023-02-02T00:17:33;0.20;;;0.20;;
3667;SDS011;24099;47.102;15.440;2023-02-02T00:20:02;0.20;;;0.20;;
3667;SDS011;24099;47.102;15.440;2023-02-02T00:22:30;0.30;;;0.30;;
3667;SDS011;24099;47.102;15.440;2023-02-02T00:25:01;0.20;;;0.20;;
3667;SDS011;24099;47.102;15.440;2023-02-02T00:27:30;0.30;;;0.30;;
3667;SDS011;24099;47.102;15.440;2023-02-02T00:29:58;0.40;;;0.30;;
3667;SDS011;24099;47.102;15.440;2023-02-02T00:32:26;5.22;;;0.65;;
3667;SDS011;24099;47.102;15.440;2023-02-02T00:34:53;0.20;;;0.20;;
3667;SDS011;24099;47.102;15.440;2023-02-02T00:37:23;0.28;;;0.28;;
3667;SDS011;24099;47.102;15.440;2023-02-02T00:39:51;0.30;;;0.30;;
3667;SDS011;24099;47.102;15.440;2023-02-02T00:42:19;0.20;;;0.20;;
3667;SDS011;24099;47.102;15.440;2023-02-02T00:44:47;0.20;;;0.20;;
3667;SDS011;24099;47.102;15.440;2023-02-02T00:47:32;0.85;;;0.52;;
3667;SDS011;24099;47.102;15.440;2023-02-02T00:50:00;0.40;;;0.35;;
3667;SDS011;24099;47.102;15.440;2023-02-02T00:52:29;0.40;;;0.40;;
3667;SDS011;24099;47.102;15.440;2023-02-02T00:54:57;0.20;;;0.20;;
3667;SDS011;24099;47.102;15.440;2023-02-02T00:57:27;0.20;;;0.20;;
3667;SDS011;24099;47.102;15.440;2023-02-02T00:59:55;0.10;;;0.10;;
3667;SDS011;24099;47.102;15.440;2023-02-02T01:02:23;0.20;;;0.20;;
3667;SDS011;24099;47.102;15.440;2023-02-02T01:04:51;0.20;;;0.20;;
3667;SDS011;24099;47.102;15.440;2023-02-02T01:07:19;0.30;;;0.30;;
3667;SDS011;24099;47.102;15.440;2023-02-02T01:09:49;0.30;;;0.30;;
3667;SDS011;24099;47.102;15.440;2023-02-02T01:12:17;0.32;;;0.32;;
3667;SDS011;24099;47.102;15.440;2023-02-02T01:14:45;0.25;;;0.25;;
3667;SDS011;24099;47.102;15.440;2023-02-02T01:17:13;0.20;;;0.20;;
3667;SDS011;24099;47.102;15.440;2023-02-02T01:19:40;0.20;;;0.20;;
3667;SDS011;24099;47.102;15.440;2023-02-02T01:22:10;0.20;;;0.20;;
3667;SDS011;24099;47.102;15.440;2023-02-02T01:24:37;0.30;;;0.30;;
3667;SDS011;24099;47.102;15.440;2023-02-02T01:27:06;0.20;;;0.20;;
3667;SDS011;24099;47.102;15.440;2023-02-02T01:29:34;0.20;;;0.20;;
3667;SDS011;24099;47.102;15.440;2023-02-02T01:32:02;0.20;;;0.20;;
3667;SDS011;24099;47.102;15.440;2023-02-02T01:34:30;0.20;;;0.20;;
3667;SDS011;24099;47.102;15.440;2023-02-02T01:36:57;0.10;;;0.10;;
3667;SDS011;24099;47.102;15.440;2023-02-02T01:39:25;0.20;;;0.20;;
3667;SDS011;24099;47.102;15.440;2023-02-02T01:41:54;0.20;;;0.20;;
3667;SDS011;24099;47.102;15.440;2023-02-02T01:50:00;0.17;;;0.15;;
3667;SDS011;24099;47.102;15.440;2023-02-02T01:52:29;0.20;;;0.20;;
3667;SDS011;24099;47.102;15.440;2023-02-02T01:55:01;0.20;;;0.20;;
3667;SDS011;24099;47.102;15.440;2023-02-02T01:57:34;0.20;;;0.20;;
3667;SDS011;24099;47.102;15.440;2023-02-02T02:00:07;0.20;;;0.20;;
3667;SDS011;24099;47.102;15.440;2023-02-02T02:02:40;0.20;;;0.20;;
3667;SDS011;24099;47.102;15.440;2023-02-02T02:05:13;0.25;;;0.25;;
3667;SDS011;24099;47.102;15.440;2023-02-02T02:07:46;0.10;;;0.10;;
3667;SDS011;24099;47.102;15.440;2023-02-02T02:10:18;0.17;;;0.17;;
3667;SDS011;24099;47.102;15.440;2023-02-02T02:12:45;0.10;;;0.10;;
3667;SDS011;24099;47.102;15.440;2023-02-02T02:15:16;0.20;;;0.20;;
3667;SDS011;24099;47.102;15.440;2023-02-02T02:18:06;0.20;;;0.20;;
3667;SDS011;24099;47.102;15.440;2023-02-02T02:20:53;0.20;;;0.20;;
3667;SDS011;24099;47.102;15.440;2023-02-02T02:24:06;0.20;;;0.20;;
3667;SDS011;24099;47.102;15.440;2023-02-02T02:30:26;0.20;;;0.20;;
3667;SDS011;24099;47.102;15.440;2023-02-02T02:33:33;0.20;;;0.20;;
3667;SDS011;24099;47.102;15.440;2023-02-02T02:36:11;0.28;;;0.28;;
3667;SDS011;24099;47.102;15.440;2023-02-02T02:38:47;0.22;;;0.22;;
3667;SDS011;24099;47.102;15.440;2023-02-02T02:41:23;0.20;;;0.20;;
3667;SDS011;24099;47.102;15.440;2023-02-02T02:43:58;0.30;;;0.30;;
3667;SDS011;24099;47.102;15.440;2023-02-02T02:46:29;0.30;;;0.30;;
3667;SDS011;24099;47.102;15.440;2023-02-02T02:49:00;0.20;;;0.20;;
3667;SDS011;24099;47.102;15.440;2023-02-02T02:51:38;0.30;;;0.30;;
3667;SDS011;24099;47.102;15.440;2023-02-02T02:54:20;0.30;;;0.30;;
3667;SDS011;24099;47.102;15.440;2023-02-02T02:56:54;0.95;;;0.75;;
3667;SDS011;24099;47.102;15.440;2023-02-02T02:59:37;0.30;;;0.30;;
3667;SDS011;24099;47.102;15.440;2023-02-02T03:02:17;0.20;;;0.20;;
3667;SDS011;24099;47.102;15.440;2023-02-02T03:04:57;0.20;;;0.20;;
3667;SDS011;24099;47.102;15.440;2023-02-02T03:07:34;0.20;;;0.20;;
3667;SDS011;24099;47.102;15.440;2023-02-02T03:10:08;0.20;;;0.20;;
3667;SDS011;24099;47.102;15.440;2023-02-02T03:12:42;0.10;;;0.10;;
3667;SDS011;24099;47.102;15.440;2023-02-02T03:15:12;0.20;;;0.20;;
3667;SDS011;24099;47.102;15.440;2023-02-02T03:17:40;0.30;;;0.30;;
3667;SDS011;24099;47.102;15.440;2023-02-02T03:20:10;0.30;;;0.30;;
3667;SDS011;24099;47.102;15.440;2023-02-02T03:22:38;0.15;;;0.15;;
3667;SDS011;24099;47.102;15.440;2023-02-02T03:25:06;0.20;;;0.20;;
3667;SDS011;24099;47.102;15.440;2023-02-02T03:27:36;0.20;;;0.20;;
3667;SDS011;24099;47.102;15.440;2023-02-02T03:30:05;0.68;;;0.68;;
3667;SDS011;24099;47.102;15.440;2023-02-02T03:32:35;0.20;;;0.20;;
3667;SDS011;24099;47.102;15.440;2023-02-02T03:35:03;0.20;;;0.20;;
3667;SDS011;24099;47.102;15.440;2023-02-02T03:37:33;0.20;;;0.20;;
3667;SDS011;24099;47.102;15.440;2023-02-02T03:40:01;0.20;;;0.20;;
3667;SDS011;24099;47.102;15.440;2023-02-02T03:42:30;0.20;;;0.20;;
3667;SDS011;24099;47.102;15.440;2023-02-02T03:44:57;0.20;;;0.20;;
3667;SDS011;24099;47.102;15.440;2023-02-02T03:47:27;0.15;;;0.15;;
3667;SDS011;24099;47.102;15.440;2023-02-02T03:49:55;0.20;;;0.20;;
3667;SDS011;24099;47.102;15.440;2023-02-02T03:52:23;0.10;;;0.10;;
3667;SDS011;24099;47.102;15.440;2023-02-02T03:54:52;0.20;;;0.20;;
3667;SDS011;24099;47.102;15.440;2023-02-02T03:57:20;0.90;;;0.30;;
3667;SDS011;24099;47.102;15.440;2023-02-02T03:59:47;0.10;;;0.10;;
3667;SDS011;24099;47.102;15.440;2023-02-02T04:02:15;0.20;;;0.20;;
3667;SDS011;24099;47.102;15.440;2023-02-02T04:04:43;0.20;;;0.20;;
3667;SDS011;24099;47.102;15.440;2023-02-02T04:07:10;0.10;;;0.10;;
3667;SDS011;24099;47.102;15.440;2023-02-02T04:09:38;0.20;;;0.20;;
3667;SDS011;24099;47.102;15.440;2023-02-02T04:12:07;0.20;;;0.20;;
3667;SDS011;24099;47.102;15.440;2023-02-02T04:14:35;0.10;;;0.10;;
3667;SDS011;24099;47.102;15.440;2023-02-02T04:17:03;0.65;;;0.30;;
3667;SDS011;24099;47.102;15.440;2023-02-02T04:19:30;0.20;;;0.20;;
3667;SDS011;24099;47.102;15.440;2023-02-02T04:21:58;0.10;;;0.10;;
3667;SDS011;24099;47.102;15.440;2023-02-02T04:24:26;0.20;;;0.20;;
3667;SDS011;24099;47.102;15.440;2023-02-02T04:26:53;0.20;;;0.20;;
3667;SDS011;24099;47.102;15.440;2023-02-02T04:29:22;0.20;;;0.20;;
3667;SDS011;24099;47.102;15.440;2023-02-02T04:31:50;0.30;;;0.30;;
3667;SDS011;24099;47.102;15.440;2023-02-02T04:34:18;0.20;;;0.20;;
3667;SDS011;24099;47.102;15.440;2023-02-02T04:36:46;0.20;;;0.20;;
3667;SDS011;24099;47.102;15.440;2023-02-02T04:39:15;0.20;;;0.20;;
3667;SDS011;24099;47.102;15.440;2023-02-02T04:41:42;0.20;;;0.20;;
3667;SDS011;24099;47.102;15.440;2023-02-02T04:44:12;0.20;;;0.20;;
3667;SDS011;24099;47.102;15.440;2023-02-02T04:46:42;0.20;;;0.20;;
3667;SDS011;24099;47.102;15.440;2023-02-02T04:49:10;0.20;;;0.20;;
3667;SDS011;24099;47.102;15.440;2023-02-02T04:51:38;0.20;;;0.20;;
3667;SDS011;24099;47.102;15.440;2023-02-02T04:54:07;0.28;;;0.20;;
3667;SDS011;24099;47.102;15.440;2023-02-02T04:56:35;0.20;;;0.20;;
3667;SDS011;24099;47.102;15.440;2023-02-02T04:59:03;0.20;;;0.20;;
3667;SDS011;24099;47.102;15.440;2023-02-02T05:01:34;0.20;;;0.20;;
3667;SDS011;24099;47.102;15.440;2023-02-02T05:04:03;0.10;;;0.10;;
3667;SDS011;24099;47.102;15.440;2023-02-02T05:06:31;0.22;;;0.22;;
3667;SDS011;24099;47.102;15.440;2023-02-02T05:08:59;0.20;;;0.20;;
3667;SDS011;24099;47.102;15.440;2023-02-02T05:11:27;0.43;;;0.20;;
3667;SDS011;24099;47.102;15.440;2023-02-02T05:13:55;0.30;;;0.30;;
3667;SDS011;24099;47.102;15.440;2023-02-02T05:16:23;0.20;;;0.20;;
3667;SDS011;24099;47.102;15.440;2023-02-02T05:18:52;0.20;;;0.20;;
3667;SDS011;24099;47.102;15.440;2023-02-02T05:21:24;0.20;;;0.20;;
3667;SDS011;24099;47.102;15.440;2023-02-02T05:23:52;0.13;;;0.13;;
3667;SDS011;24099;47.102;15.440;2023-02-02T05:26:21;0.20;;;0.20;;
3667;SDS011;24099;47.102;15.440;2023-02-02T05:28:50;0.20;;;0.20;;
3667;SDS011;24099;47.102;15.440;2023-02-02T05:31:19;0.10;;;0.10;;
3667;SDS011;24099;47.102;15.440;2023-02-02T05:33:47;0.30;;;0.30;;
3667;SDS011;24099;47.102;15.440;2023-02-02T05:36:14;0.20;;;0.20;;
3667;SDS011;24099;47.102;15.440;2023-02-02T05:38:43;0.20;;;0.20;;
3667;SDS011;24099;47.102;15.440;2023-02-02T05:41:11;0.30;;;0.30;;
3667;SDS011;24099;47.102;15.440;2023-02-02T05:43:39;0.20;;;0.20;;
3667;SDS011;24099;47.102;15.440;2023-02-02T05:46:07;0.28;;;0.28;;
3667;SDS011;24099;47.102;15.440;2023-02-02T05:48:34;0.20;;;0.20;;
3667;SDS011;24099;47.102;15.440;2023-02-02T05:51:03;0.20;;;0.20;;
3667;SDS011;24099;47.102;15.440;2023-02-02T05:53:33;0.20;;;0.20;;
3667;SDS011;24099;47.102;15.440;2023-02-02T05:56:02;0.20;;;0.20;;
3667;SDS011;24099;47.102;15.440;2023-02-02T05:58:30;0.10;;;0.10;;
3667;SDS011;24099;47.102;15.440;2023-02-02T06:00:58;0.20;;;0.20;;
3667;SDS011;24099;47.102;15.440;2023-02-02T06:03:26;0.28;;;0.28;;
3667;SDS011;24099;47.102;15.440;2023-02-02T06:05:54;0.20;;;0.20;;
3667;SDS011;24099;47.102;15.440;2023-02-02T06:08:21;0.10;;;0.10;;
3667;SDS011;24099;47.102;15.440;2023-02-02T06:10:49;0.10;;;0.10;;
3667;SDS011;24099;47.102;15.440;2023-02-02T06:13:18;0.20;;;0.20;;
3667;SDS011;24099;47.102;15.440;2023-02-02T06:15:46;0.10;;;0.10;;
3667;SDS011;24099;47.102;15.440;2023-02-02T06:18:13;0.10;;;0.10;;
3667;SDS011;24099;47.102;15.440;2023-02-02T06:20:41;0.30;;;0.30;;
3667;SDS011;24099;47.102;15.440;2023-02-02T06:23:10;0.10;;;0.10;;
3667;SDS011;24099;47.102;15.440;2023-02-02T06:25:38;0.20;;;0.20;;
3667;SDS011;24099;47.102;15.440;2023-02-02T06:28:05;0.22;;;0.22;;
3667;SDS011;24099;47.102;15.440;2023-02-02T06:30:35;0.10;;;0.10;;
3667;SDS011;24099;47.102;15.440;2023-02-02T06:33:02;0.17;;;0.17;;
3667;SDS011;24099;47.102;15.440;2023-02-02T06:35:31;0.22;;;0.22;;
3667;SDS011;24099;47.102;15.440;2023-02-02T06:37:59;0.20;;;0.20;;
3667;SDS011;24099;47.102;15.440;2023-02-02T06:40:27;0.20;;;0.20;;
3667;SDS011;24099;47.102;15.440;2023-02-02T06:42:55;0.20;;;0.20;;
3667;SDS011;24099;47.102;15.440;2023-02-02T06:45:23;0.13;;;0.13;;
3667;SDS011;24099;47.102;15.440;2023-02-02T06:47:53;0.15;;;0.15;;
3667;SDS011;24099;47.102;15.440;2023-02-02T06:50:25;0.20;;;0.20;;
3667;SDS011;24099;47.102;15.440;2023-02-02T06:52:52;0.20;;;0.20;;
3667;SDS011;24099;47.102;15.440;2023-02-02T06:55:20;0.30;;;0.30;;
3667;SDS011;24099;47.102;15.440;2023-02-02T06:57:48;0.40;;;0.40;;
3667;SDS011;24099;47.102;15.440;2023-02-02T07:00:22;0.32;;;0.32;;
3667;SDS011;24099;47.102;15.440;2023-02-02T07:02:50;2.40;;;0.60;;
3667;SDS011;24099;47.102;15.440;2023-02-02T07:05:20;2.40;;;0.45;;
3667;SDS011;24099;47.102;15.440;2023-02-02T07:07:48;0.25;;;0.25;;
3667;SDS011;24099;47.102;15.440;2023-02-02T07:10:16;1.20;;;0.52;;
3667;SDS011;24099;47.102;15.440;2023-02-02T07:12:44;0.73;;;0.32;;
3667;SDS011;24099;47.102;15.440;2023-02-02T07:15:12;0.30;;;0.30;;
3667;SDS011;24099;47.102;15.440;2023-02-02T07:17:39;1.15;;;0.73;;
3667;SDS011;24099;47.102;15.440;2023-02-02T07:20:09;0.63;;;0.50;;
3667;SDS011;24099;47.102;15.440;2023-02-02T07:22:37;0.90;;;0.82;;
3667;SDS011;24099;47.102;15.440;2023-02-02T07:25:05;1.05;;;0.50;;
3667;SDS011;24099;47.102;15.440;2023-02-02T07:27:33;0.40;;;0.40;;
3667;SDS011;24099;47.102;15.440;2023-02-02T07:30:01;0.60;;;0.60;;
3667;SDS011;24099;47.102;15.440;2023-02-02T07:32:29;0.20;;;0.20;;
3667;SDS011;24099;47.102;15.440;2023-02-02T07:34:57;0.40;;;0.40;;
3667;SDS011;24099;47.102;15.440;2023-02-02T07:37:26;0.20;;;0.20;;
3667;SDS011;24099;47.102;15.440;2023-02-02T07:39:53;0.63;;;0.60;;
3667;SDS011;24099;47.102;15.440;2023-02-02T07:42:21;0.20;;;0.20;;
3667;SDS011;24099;47.102;15.440;2023-02-02T07:44:49;0.40;;;0.40;;
3667;SDS011;24099;47.102;15.440;2023-02-02T07:47:16;1.85;;;0.40;;
3667;SDS011;24099;47.102;15.440;2023-02-02T07:49:44;0.60;;;0.38;;
3667;SDS011;24099;47.102;15.440;2023-02-02T07:52:12;3.33;;;0.50;;
3667;SDS011;24099;47.102;15.440;2023-02-02T07:54:41;0.65;;;0.65;;
3667;SDS011;24099;47.102;15.440;2023-02-02T07:57:09;0.82;;;0.50;;
3667;SDS011;24099;47.102;15.440;2023-02-02T07:59:37;0.68;;;0.45;;
3667;SDS011;24099;47.102;15.440;2023-02-02T08:02:07;0.30;;;0.30;;
3667;SDS011;24099;47.102;15.440;2023-02-02T08:04:35;0.90;;;0.65;;
3667;SDS011;24099;47.102;15.440;2023-02-02T08:07:02;6.88;;;0.52;;
3667;SDS011;24099;47.102;15.440;2023-02-02T08:09:30;0.30;;;0.30;;
3667;SDS011;24099;47.102;15.440;2023-02-02T08:11:59;0.65;;;0.60;;
3667;SDS011;24099;47.102;15.440;2023-02-02T08:14:27;0.60;;;0.60;;
3667;SDS011;24099;47.102;15.440;2023-02-02T08:16:55;0.63;;;0.60;;
3667;SDS011;24099;47.102;15.440;2023-02-02T08:19:22;2.75;;;0.40;;
3667;SDS011;24099;47.102;15.440;2023-02-02T08:21:50;0.40;;;0.40;;
3667;SDS011;24099;47.102;15.440;2023-02-02T08:24:18;0.38;;;0.38;;
3667;SDS011;24099;47.102;15.440;2023-02-02T08:26:45;0.28;;;0.28;;
3667;SDS011;24099;47.102;15.440;2023-02-02T08:29:14;0.98;;;0.75;;
3667;SDS011;24099;47.102;15.440;2023-02-02T08:31:43;0.38;;;0.30;;
3667;SDS011;24099;47.102;15.440;2023-02-02T08:34:11;0.52;;;0.30;;
3667;SDS011;24099;47.102;15.440;2023-02-02T08:36:39;0.28;;;0.28;;
3667;SDS011;24099;47.102;15.440;2023-02-02T08:39:08;0.50;;;0.50;;
3667;SDS011;24099;47.102;15.440;2023-02-02T08:41:38;0.30;;;0.30;;
3667;SDS011;24099;47.102;15.440;2023-02-02T08:44:06;0.60;;;0.45;;
3667;SDS011;24099;47.102;15.440;2023-02-02T08:46:36;0.25;;;0.25;;
3667;SDS011;24099;47.102;15.440;2023-02-02T08:49:04;0.40;;;0.40;;
3667;SDS011;24099;47.102;15.440;2023-02-02T08:51:31;0.55;;;0.30;;
3667;SDS011;24099;47.102;15.440;2023-02-02T08:53:59;0.40;;;0.40;;
3667;SDS011;24099;47.102;15.440;2023-02-02T08:56:27;0.30;;;0.30;;
3667;SDS011;24099;47.102;15.440;2023-02-02T08:58:55;0.80;;;0.40;;
3667;SDS011;24099;47.102;15.440;2023-02-02T09:01:24;1.13;;;0.55;;
3667;SDS011;24099;47.102;15.440;2023-02-02T09:03:55;0.20;;;0.20;;
3667;SDS011;24099;47.102;15.440;2023-02-02T09:06:25;3.40;;;0.55;;
3667;SDS011;24099;47.102;15.440;2023-02-02T09:08:56;0.60;;;0.45;;
3667;SDS011;24099;47.102;15.440;2023-02-02T09:11:24;0.20;;;0.20;;
3667;SDS011;24099;47.102;15.440;2023-02-02T09:13:52;0.47;;;0.47;;
3667;SDS011;24099;47.102;15.440;2023-02-02T09:16:22;0.30;;;0.30;;
3667;SDS011;24099;47.102;15.440;2023-02-02T09:18:50;0.80;;;0.50;;
3667;SDS011;24099;47.102;15.440;2023-02-02T09:21:19;0.52;;;0.50;;
3667;SDS011;24099;47.102;15.440;2023-02-02T09:23:48;0.52;;;0.40;;
3667;SDS011;24099;47.102;15.440;2023-02-02T09:26:18;0.32;;;0.32;;
3667;SDS011;24099;47.102;15.440;2023-02-02T09:28:48;0.22;;;0.22;;
3667;SDS011;24099;47.102;15.440;2023-02-02T09:31:17;0.47;;;0.47;;
3667;SDS011;24099;47.102;15.440;2023-02-02T09:33:45;0.30;;;0.30;;
3667;SDS011;24099;47.102;15.440;2023-02-02T09:36:14;0.50;;;0.50;;
3667;SDS011;24099;47.102;15.440;2023-02-02T09:38:44;0.20;;;0.20;;
3667;SDS011;24099;47.102;15.440;2023-02-02T09:44:25;0.80;;;0.50;;
3667;SDS011;24099;47.102;15.440;2023-02-02T09:47:07;0.22;;;0.22;;
3667;SDS011;24099;47.102;15.440;2023-02-02T09:49:44;0.30;;;0.30;;
3667;SDS011;24099;47.102;15.440;2023-02-02T09:52:21;0.40;;;0.40;;
3667;SDS011;24099;47.102;15.440;2023-02-02T09:54:55;0.88;;;0.77;;
3667;SDS011;24099;47.102;15.440;2023-02-02T09:57:30;1.13;;;0.73;;
3667;SDS011;24099;47.102;15.440;2023-02-02T10:00:04;0.40;;;0.40;;
3667;SDS011;24099;47.102;15.440;2023-02-02T10:02:43;0.88;;;0.70;;
3667;SDS011;24099;47.102;15.440;2023-02-02T10:05:14;1.13;;;0.73;;
3667;SDS011;24099;47.102;15.440;2023-02-02T10:07:49;0.55;;;0.50;;
3667;SDS011;24099;47.102;15.440;2023-02-02T10:10:22;0.47;;;0.47;;
3667;SDS011;24099;47.102;15.440;2023-02-02T10:12:55;0.45;;;0.30;;
3667;SDS011;24099;47.102;15.440;2023-02-02T10:15:29;0.40;;;0.40;;
3667;SDS011;24099;47.102;15.440;2023-02-02T10:18:03;0.22;;;0.22;;
3667;SDS011;24099;47.102;15.440;2023-02-02T10:20:41;0.45;;;0.45;;
3667;SDS011;24099;47.102;15.440;2023-02-02T10:23:17;0.40;;;0.40;;
3667;SDS011;24099;47.102;15.440;2023-02-02T10:25:55;0.40;;;0.40;;
3667;SDS011;24099;47.102;15.440;2023-02-02T10:28:33;0.30;;;0.30;;
3667;SDS011;24099;47.102;15.440;2023-02-02T10:31:15;1.05;;;0.82;;
3667;SDS011;24099;47.102;15.440;2023-02-02T10:33:50;0.40;;;0.40;;
3667;SDS011;24099;47.102;15.440;2023-02-02T10:36:31;0.95;;;0.43;;
3667;SDS011;24099;47.102;15.440;2023-02-02T10:39:08;0.50;;;0.50;;
3667;SDS011;24099;47.102;15.440;2023-02-02T10:41:48;0.47;;;0.47;;
3667;SDS011;24099;47.102;15.440;2023-02-02T10:44:24;0.30;;;0.30;;
3667;SDS011;24099;47.102;15.440;2023-02-02T10:46:59;0.85;;;0.45;;
3667;SDS011;24099;47.102;15.440;2023-02-02T10:49:31;1.00;;;0.47;;
3667;SDS011;24099;47.102;15.440;2023-02-02T10:52:03;0.52;;;0.52;;
3667;SDS011;24099;47.102;15.440;2023-02-02T10:54:43;0.70;;;0.70;;
3667;SDS011;24099;47.102;15.440;2023-02-02T10:57:24;0.40;;;0.40;;
3667;SDS011;24099;47.102;15.440;2023-02-02T11:00:07;1.00;;;0.75;;
3667;SDS011;24099;47.102;15.440;2023-02-02T11:02:43;0.50;;;0.50;;
3667;SDS011;24099;47.102;15.440;2023-02-02T11:05:12;0.68;;;0.52;;
3667;SDS011;24099;47.102;15.440;2023-02-02T11:08:04;1.40;;;0.68;;
3667;SDS011;24099;47.102;15.440;2023-02-02T11:10:41;0.75;;;0.75;;
3667;SDS011;24099;47.102;15.440;2023-02-02T11:13:13;1.42;;;0.80;;
3667;SDS011;24099;47.102;15.440;2023-02-02T11:15:50;1.10;;;1.08;;
3667;SDS011;24099;47.102;15.440;2023-02-02T11:18:38;0.55;;;0.55;;
3667;SDS011;24099;47.102;15.440;2023-02-02T11:21:10;0.95;;;0.70;;
3667;SDS011;24099;47.102;15.440;2023-02-02T11:23:56;0.88;;;0.82;;
3667;SDS011;24099;47.102;15.440;2023-02-02T11:26:38;1.52;;;0.70;;
3667;SDS011;24099;47.102;15.440;2023-02-02T11:29:13;0.50;;;0.50;;
3667;SDS011;24099;47.102;15.440;2023-02-02T11:31:45;0.77;;;0.77;;
3667;SDS011;24099;47.102;15.440;2023-02-02T11:34:16;1.20;;;1.10;;
3667;SDS011;24099;47.102;15.440;2023-02-02T11:39:38;0.70;;;0.70;;
3667;SDS011;24099;47.102;15.440;2023-02-02T11:42:07;2.00;;;1.27;;
3667;SDS011;24099;47.102;15.440;2023-02-02T11:44:43;1.02;;;0.93;;
3667;SDS011;24099;47.102;15.440;2023-02-02T11:47:18;0.60;;;0.60;;
3667;SDS011;24099;47.102;15.440;2023-02-02T11:49:49;1.53;;;1.30;;
3667;SDS011;24099;47.102;15.440;2023-02-02T11:52:20;1.02;;;1.00;;
3667;SDS011;24099;47.102;15.440;2023-02-02T11:54:51;3.13;;;1.67;;
3667;SDS011;24099;47.102;15.440;2023-02-02T11:57:22;11.77;;;2.30;;
3667;SDS011;24099;47.102;15.440;2023-02-02T12:00:04;2.30;;;1.80;;
3667;SDS011;24099;47.102;15.440;2023-02-02T12:02:44;3.65;;;1.65;;
3667;SDS011;24099;47.102;15.440;2023-02-02T12:05:31;2.45;;;1.83;;
3667;SDS011;24099;47.102;15.440;2023-02-02T12:08:00;1.35;;;1.05;;
3667;SDS011;24099;47.102;15.440;2023-02-02T12:10:31;3.42;;;1.23;;
3667;SDS011;24099;47.102;15.440;2023-02-02T12:13:06;1.33;;;1.23;;
3667;SDS011;24099;47.102;15.440;2023-02-02T12:15:46;1.92;;;1.55;;
3667;SDS011;24099;47.102;15.440;2023-02-02T12:18:29;2.42;;;1.08;;
3667;SDS011;24099;47.102;15.440;2023-02-02T12:21:08;1.20;;;1.10;;
3667;SDS011;24099;47.102;15.440;2023-02-02T12:23:48;1.63;;;1.23;;
3667;SDS011;24099;47.102;15.440;2023-02-02T12:26:25;0.98;;;0.98;;
3667;SDS011;24099;47.102;15.440;2023-02-02T12:29:17;0.95;;;0.73;;
3667;SDS011;24099;47.102;15.440;2023-02-02T12:32:08;2.15;;;1.23;;
3667;SDS011;24099;47.102;15.440;2023-02-02T12:34:47;0.75;;;0.73;;
3667;SDS011;24099;47.102;15.440;2023-02-02T12:37:25;1.33;;;0.73;;
3667;SDS011;24099;47.102;15.440;2023-02-02T12:40:10;1.27;;;0.82;;
3667;SDS011;24099;47.102;15.440;2023-02-02T12:42:55;3.15;;;1.00;;
3667;SDS011;24099;47.102;15.440;2023-02-02T12:45:38;1.27;;;0.63;;
3667;SDS011;24099;47.102;15.440;2023-02-02T12:48:35;0.55;;;0.50;;
3667;SDS011;24099;47.102;15.440;2023-02-02T12:51:15;1.23;;;0.85;;
3667;SDS011;24099;47.102;15.440;2023-02-02T12:54:00;0.68;;;0.68;;
3667;SDS011;24099;47.102;15.440;2023-02-02T12:56:43;0.50;;;0.50;;
3667;SDS011;24099;47.102;15.440;2023-02-02T12:59:18;2.60;;;0.90;;
3667;SDS011;24099;47.102;15.440;2023-02-02T13:01:56;1.58;;;1.48;;
3667;SDS011;24099;47.102;15.440;2023-02-02T13:04:45;1.38;;;1.13;;
3667;SDS011;24099;47.102;15.440;2023-02-02T13:07:27;0.80;;;0.65;;
3667;SDS011;24099;47.102;15.440;2023-02-02T13:10:08;0.43;;;0.43;;
3667;SDS011;24099;47.102;15.440;2023-02-02T13:12:50;0.82;;;0.82;;
3667;SDS011;24099;47.102;15.440;2023-02-02T13:15:21;0.93;;;0.93;;
3667;SDS011;24099;47.102;15.440;2023-02-02T13:17:56;0.57;;;0.57;;
3667;SDS011;24099;47.102;15.440;2023-02-02T13:20:30;0.60;;;0.60;;
3667;SDS011;24099;47.102;15.440;2023-02-02T13:23:04;0.40;;;0.40;;
3667;SDS011;24099;47.102;15.440;2023-02-02T13:25:39;0.98;;;0.68;;
3667;SDS011;24099;47.102;15.440;2023-02-02T13:28:14;1.00;;;0.73;;
3667;SDS011;24099;47.102;15.440;2023-02-02T13:30:51;0.57;;;0.57;;
3667;SDS011;24099;47.102;15.440;2023-02-02T13:33:24;0.80;;;0.80;;
3667;SDS011;24099;47.102;15.440;2023-02-02T13:35:58;0.85;;;0.47;;
3667;SDS011;24099;47.102;15.440;2023-02-02T13:38:29;0.70;;;0.70;;
3667;SDS011;24099;47.102;15.440;2023-02-02T13:40:59;0.60;;;0.60;;
3667;SDS011;24099;47.102;15.440;2023-02-02T13:43:33;0.55;;;0.55;;
3667;SDS011;24099;47.102;15.440;2023-02-02T13:46:08;0.55;;;0.55;;
3667;SDS011;24099;47.102;15.440;2023-02-02T13:48:49;0.38;;;0.38;;
3667;SDS011;24099;47.102;15.440;2023-02-02T14:00:35;0.40;;;0.40;;
3667;SDS011;24099;47.102;15.440;2023-02-02T14:03:19;5.22;;;0.50;;
3667;SDS011;24099;47.102;15.440;2023-02-02T14:06:02;0.90;;;0.40;;
3667;SDS011;24099;47.102;15.440;2023-02-02T14:08:34;2.55;;;0.40;;
3667;SDS011;24099;47.102;15.440;2023-02-02T14:11:03;0.45;;;0.40;;
3667;SDS011;24099;47.102;15.440;2023-02-02T14:13:40;0.45;;;0.45;;
3667;SDS011;24099;47.102;15.440;2023-02-02T14:16:41;0.60;;;0.60;;
3667;SDS011;24099;47.102;15.440;2023-02-02T14:19:13;2.08;;;0.82;;
3667;SDS011;24099;47.102;15.440;2023-02-02T14:22:02;0.68;;;0.65;;
3667;SDS011;24099;47.102;15.440;2023-02-02T14:24:45;0.50;;;0.50;;
3667;SDS011;24099;47.102;15.440;2023-02-02T14:30:23;0.50;;;0.50;;
3667;SDS011;24099;47.102;15.440;2023-02-02T14:35:54;0.40;;;0.40;;
3667;SDS011;24099;47.102;15.440;2023-02-02T14:41:43;0.93;;;0.90;;
3667;SDS011;24099;47.102;15.440;2023-02-02T14:47:44;0.75;;;0.70;;
3667;SDS011;24099;47.102;15.440;2023-02-02T14:50:18;2.15;;;0.40;;
3667;SDS011;24099;47.102;15.440;2023-02-02T14:52:55;0.45;;;0.45;;
3667;SDS011;24099;47.102;15.440;2023-02-02T14:55:32;0.57;;;0.57;;
3667;SDS011;24099;47.102;15.440;2023-02-02T14:58:20;0.43;;;0.43;;
3667;SDS011;24099;47.102;15.440;2023-02-02T15:00:55;1.80;;;0.33;;
3667;SDS011;24099;47.102;15.440;2023-02-02T15:03:46;0.43;;;0.43;;
3667;SDS011;24099;47.102;15.440;2023-02-02T15:06:28;0.57;;;0.57;;
3667;SDS011;24099;47.102;15.440;2023-02-02T15:14:46;0.65;;;0.50;;
3667;SDS011;24099;47.102;15.440;2023-02-02T15:17:20;1.90;;;0.70;;
3667;SDS011;24099;47.102;15.440;2023-02-02T15:19:53;1.42;;;1.08;;
3667;SDS011;24099;47.102;15.440;2023-02-02T15:22:30;0.32;;;0.32;;
3667;SDS011;24099;47.102;15.440;2023-02-02T15:25:02;0.50;;;0.50;;
3667;SDS011;24099;47.102;15.440;2023-02-02T15:27:38;0.63;;;0.50;;
3667;SDS011;24099;47.102;15.440;2023-02-02T15:30:12;1.10;;;0.60;;
3667;SDS011;24099;47.102;15.440;2023-02-02T15:32:42;1.50;;;0.55;;
3667;SDS011;24099;47.102;15.440;2023-02-02T15:35:13;0.52;;;0.52;;
3667;SDS011;24099;47.102;15.440;2023-02-02T15:37:46;0.75;;;0.75;;
3667;SDS011;24099;47.102;15.440;2023-02-02T15:40:20;0.90;;;0.75;;
3667;SDS011;24099;47.102;15.440;2023-02-02T15:42:50;0.65;;;0.65;;
3667;SDS011;24099;47.102;15.440;2023-02-02T15:45:30;0.40;;;0.40;;
3667;SDS011;24099;47.102;15.440;2023-02-02T15:48:11;1.48;;;0.73;;
3667;SDS011;24099;47.102;15.440;2023-02-02T15:50:49;0.35;;;0.35;;
3667;SDS011;24099;47.102;15.440;2023-02-02T15:53:21;0.90;;;0.60;;
3667;SDS011;24099;47.102;15.440;2023-02-02T15:55:51;0.47;;;0.47;;
3667;SDS011;24099;47.102;15.440;2023-02-02T15:58:25;0.30;;;0.30;;
3667;SDS011;24099;47.102;15.440;2023-02-02T16:00:59;0.77;;;0.70;;